Time;durP1;ratioP1;P1;durP2;ratioP2;P2;SDS_P1;SDS_P2;PMS_P1;PMS_P2;Temp;Humidity;BMP_temperature;BMP_pressure;BME280_temperature;BME280_humidity;BME280_pressure;Samples;Min_cycle;Max_cycle;Signal;HPM_P1;HPM_P2
2021/12/31 00:00:57;;;;;;;30.70;14.63;;;-1.70;74.40;;;;;;5055493;28;20029;-36
2021/12/31 00:03:23;;;;;;;30.35;15.43;;;-1.70;74.40;;;;;;5056070;28;20359;-39
2021/12/31 00:05:48;;;;;;;29.75;14.13;;;-1.70;74.60;;;;;;5055839;28;20033;-37
2021/12/31 00:08:14;;;;;;;31.90;14.93;;;-1.70;74.70;;;;;;5055897;28;20167;-36
2021/12/31 00:10:39;;;;;;;32.70;14.75;;;-1.70;74.60;;;;;;5056032;28;20116;-39
2021/12/31 00:13:05;;;;;;;29.95;14.77;;;-1.70;74.60;;;;;;5055769;28;20021;-39
2021/12/31 00:15:31;;;;;;;34.58;15.05;;;-1.70;74.60;;;;;;5055779;28;20029;-38
2021/12/31 00:17:57;;;;;;;26.33;12.90;;;-1.80;74.60;;;;;;5055696;28;20339;-38
2021/12/31 00:20:24;;;;;;;31.58;14.80;;;-1.80;74.50;;;;;;5055844;28;20033;-38
2021/12/31 00:23:07;;;;;;;30.05;15.02;;;-1.80;74.50;;;;;;5055687;28;20033;-39
2021/12/31 00:25:40;;;;;;;29.08;14.38;;;-1.80;74.60;;;;;;5055986;28;20064;-36
2021/12/31 00:28:06;;;;;;;33.30;15.13;;;-1.80;74.70;;;;;;5055824;28;20056;-39
2021/12/31 00:30:33;;;;;;;30.67;14.75;;;-1.80;74.70;;;;;;5055801;28;20060;-36
2021/12/31 00:33:01;;;;;;;35.78;14.85;;;-1.80;74.80;;;;;;5055677;28;20321;-36
2021/12/31 00:35:28;;;;;;;32.72;14.98;;;-1.80;74.60;;;;;;5055962;28;20031;-36
2021/12/31 00:37:53;;;;;;;34.28;16.60;;;-1.90;74.70;;;;;;5055657;28;20428;-36
2021/12/31 00:40:19;;;;;;;32.78;15.70;;;-1.90;74.80;;;;;;5055872;28;20021;-36
2021/12/31 00:42:46;;;;;;;38.38;16.13;;;-1.90;75.00;;;;;;5055694;28;20056;-39
2021/12/31 00:45:15;;;;;;;35.25;15.77;;;-1.80;74.90;;;;;;5055973;28;20033;-37
2021/12/31 00:47:42;;;;;;;34.85;15.13;;;-1.80;74.80;;;;;;5055521;28;20044;-39
2021/12/31 00:50:09;;;;;;;33.10;15.30;;;-1.80;74.80;;;;;;5055919;28;20069;-38
2021/12/31 00:52:34;;;;;;;29.30;14.98;;;-1.80;74.70;;;;;;5055391;28;20495;-38
2021/12/31 00:55:00;;;;;;;33.42;16.25;;;-1.80;74.50;;;;;;5055519;28;20034;-36
2021/12/31 00:57:26;;;;;;;33.58;15.32;;;-1.90;74.50;;;;;;5055784;28;20026;-36
2021/12/31 00:59:52;;;;;;;29.50;14.80;;;-1.90;74.60;;;;;;5055766;28;20025;-38
2021/12/31 01:02:21;;;;;;;34.25;15.07;;;-1.90;74.70;;;;;;5055764;28;20052;-39
2021/12/31 01:04:46;;;;;;;32.35;15.65;;;-1.90;74.50;;;;;;5055685;28;20458;-36
2021/12/31 01:07:12;;;;;;;34.00;16.10;;;-1.90;74.60;;;;;;5055346;28;20029;-39
2021/12/31 01:09:38;;;;;;;31.95;14.40;;;-1.90;74.80;;;;;;5055629;28;20029;-37
2021/12/31 01:12:07;;;;;;;30.85;14.50;;;-1.90;74.60;;;;;;5058802;28;20039;-38
2021/12/31 01:14:37;;;;;;;28.05;13.45;;;-1.90;74.50;;;;;;5059235;28;20036;-37
2021/12/31 01:17:07;;;;;;;28.40;13.32;;;-1.90;74.50;;;;;;5058947;28;20029;-37
2021/12/31 01:19:45;;;;;;;29.02;14.70;;;-1.90;74.50;;;;;;5059224;28;20117;-36
2021/12/31 01:22:14;;;;;;;29.27;15.13;;;-1.90;75.30;;;;;;5058878;28;20033;-38
2021/12/31 01:24:39;;;;;;;33.13;14.55;;;-1.90;74.70;;;;;;5059212;28;20035;-39
2021/12/31 01:27:05;;;;;;;30.45;14.93;;;-1.90;74.50;;;;;;5059041;28;20029;-38
2021/12/31 01:29:31;;;;;;;29.95;14.20;;;-1.90;74.60;;;;;;5059140;28;20040;-36
2021/12/31 01:31:56;;;;;;;29.58;14.20;;;-1.80;74.60;;;;;;5058638;28;20077;-38
2021/12/31 01:34:24;;;;;;;32.17;14.75;;;-1.80;74.50;;;;;;5058926;28;20055;-36
2021/12/31 01:36:50;;;;;;;32.25;15.82;;;-1.80;74.30;;;;;;5058570;28;20071;-37
2021/12/31 01:39:16;;;;;;;34.20;14.75;;;-1.80;74.30;;;;;;5058762;28;20410;-36
2021/12/31 01:41:41;;;;;;;32.05;15.18;;;-1.80;74.50;;;;;;5058485;28;20068;-36
2021/12/31 01:44:08;;;;;;;31.30;15.07;;;-1.70;74.60;;;;;;5058798;28;20087;-38
2021/12/31 01:46:36;;;;;;;31.83;14.70;;;-1.70;74.50;;;;;;5058687;28;20044;-36
2021/12/31 01:49:03;;;;;;;33.63;15.65;;;-1.70;74.40;;;;;;5058472;28;20052;-39
2021/12/31 01:51:30;;;;;;;36.30;16.48;;;-1.70;74.40;;;;;;5058217;28;20040;-36
2021/12/31 01:53:56;;;;;;;33.78;16.48;;;-1.70;74.30;;;;;;5058589;28;20021;-39
2021/12/31 01:56:24;;;;;;;35.70;15.25;;;-1.60;74.30;;;;;;5057991;28;20052;-36
2021/12/31 01:58:55;;;;;;;28.67;14.70;;;-1.60;74.30;;;;;;5058347;28;20029;-36
2021/12/31 02:01:22;;;;;;;35.20;16.67;;;-1.60;74.10;;;;;;5058107;28;20029;-38
2021/12/31 02:03:50;;;;;;;34.58;16.13;;;-1.60;74.20;;;;;;5058175;28;20049;-37
2021/12/31 02:06:16;;;;;;;34.22;16.10;;;-1.50;74.10;;;;;;5057942;28;20418;-36
2021/12/31 02:08:41;;;;;;;35.20;16.45;;;-1.50;73.80;;;;;;5058202;28;20036;-36
2021/12/31 02:11:07;;;;;;;35.05;16.33;;;-1.50;73.60;;;;;;5057548;28;20025;-36
2021/12/31 02:13:35;;;;;;;34.75;16.65;;;-1.50;73.40;;;;;;5058122;28;20029;-36
2021/12/31 02:16:01;;;;;;;32.25;15.88;;;-1.60;73.00;;;;;;5057915;28;20029;-36
2021/12/31 02:18:30;;;;;;;35.60;16.58;;;-1.60;73.00;;;;;;5057854;28;20031;-38
2021/12/31 02:20:56;;;;;;;33.85;17.70;;;-1.60;73.50;;;;;;5057725;28;20448;-36
2021/12/31 02:23:25;;;;;;;32.20;14.95;;;-1.70;73.00;;;;;;5057026;28;20029;-37
2021/12/31 02:25:54;;;;;;;32.97;15.93;;;-1.70;73.10;;;;;;5057830;28;20040;-37
2021/12/31 02:28:20;;;;;;;34.85;17.15;;;-1.70;73.30;;;;;;5057755;28;20405;-36
2021/12/31 02:30:47;;;;;;;34.17;16.85;;;-1.80;73.10;;;;;;5057858;28;20110;-36
2021/12/31 02:33:13;;;;;;;31.60;15.50;;;-1.80;73.10;;;;;;5057474;28;20025;-38
2021/12/31 02:35:39;;;;;;;30.63;15.88;;;-1.80;73.00;;;;;;5057725;28;20040;-39
2021/12/31 02:38:07;;;;;;;35.70;16.67;;;-1.90;73.00;;;;;;5057704;28;20021;-39
2021/12/31 02:40:33;;;;;;;34.80;16.40;;;-1.90;73.10;;;;;;5057699;28;20029;-37
2021/12/31 02:43:00;;;;;;;41.00;17.83;;;-1.90;73.30;;;;;;5057518;28;20477;-39
2021/12/31 02:45:33;;;;;;;41.95;18.70;;;-2.00;73.40;;;;;;5057335;28;20033;-36
2021/12/31 02:48:01;;;;;;;35.88;16.35;;;-2.00;73.60;;;;;;5057478;28;20071;-36
2021/12/31 02:50:33;;;;;;;41.20;17.92;;;-2.00;73.80;;;;;;5057314;28;20037;-36
2021/12/31 02:53:05;;;;;;;39.00;16.65;;;-2.00;74.00;;;;;;5056952;28;20108;-36
2021/12/31 02:55:32;;;;;;;37.53;17.30;;;-2.00;73.90;;;;;;5056950;28;20045;-36
2021/12/31 02:57:58;;;;;;;34.53;16.75;;;-1.90;73.90;;;;;;5056878;28;20036;-39
2021/12/31 03:00:27;;;;;;;42.40;18.02;;;-1.90;73.80;;;;;;5057069;28;20028;-36
2021/12/31 03:02:54;;;;;;;40.97;18.33;;;-1.90;73.70;;;;;;5056918;28;20028;-36
2021/12/31 03:05:22;;;;;;;42.97;18.55;;;-1.90;73.60;;;;;;5057239;28;20107;-38
2021/12/31 03:07:49;;;;;;;37.58;16.85;;;-1.90;73.70;;;;;;5057171;28;20052;-38
2021/12/31 03:10:17;;;;;;;41.08;18.10;;;-1.90;73.70;;;;;;5057260;28;20029;-36
2021/12/31 03:12:43;;;;;;;38.67;16.30;;;-1.90;73.70;;;;;;5056770;28;20115;-36
2021/12/31 03:15:10;;;;;;;40.17;19.10;;;-1.90;73.50;;;;;;5056583;28;20068;-36
2021/12/31 03:17:37;;;;;;;40.58;18.05;;;-2.00;73.50;;;;;;5056637;28;20033;-39
2021/12/31 03:20:15;;;;;;;42.72;19.10;;;-2.00;73.50;;;;;;5057076;28;20029;-37
2021/12/31 03:22:43;;;;;;;40.45;18.35;;;-2.00;73.70;;;;;;5056672;28;20064;-38
2021/12/31 03:25:11;;;;;;;38.60;17.85;;;-2.10;73.90;;;;;;5055765;28;20116;-36
2021/12/31 03:27:37;;;;;;;36.33;17.30;;;-2.10;74.00;;;;;;5056528;28;20056;-36
2021/12/31 03:30:05;;;;;;;39.05;18.33;;;-2.10;74.10;;;;;;5056901;28;20060;-39
2021/12/31 03:32:30;;;;;;;43.78;20.00;;;-2.10;74.30;;;;;;5056332;28;20124;-36
2021/12/31 03:34:56;;;;;;;39.25;17.20;;;-2.10;74.20;;;;;;5055812;28;20071;-39
2021/12/31 03:37:22;;;;;;;38.55;17.92;;;-2.10;74.30;;;;;;5056659;28;20025;-38
2021/12/31 03:39:47;;;;;;;42.65;18.85;;;-2.10;74.30;;;;;;5056659;28;20055;-38
2021/12/31 03:42:16;;;;;;;48.58;18.88;;;-2.20;74.40;;;;;;5056700;28;20036;-39
2021/12/31 03:44:42;;;;;;;40.30;18.20;;;-2.20;74.40;;;;;;5056108;28;20326;-36
2021/12/31 03:47:08;;;;;;;48.17;18.73;;;-2.20;74.50;;;;;;5056142;28;20439;-36
2021/12/31 03:49:34;;;;;;;45.60;18.52;;;-2.20;74.60;;;;;;5056362;28;20033;-39
2021/12/31 03:51:59;;;;;;;38.97;18.17;;;-2.20;74.70;;;;;;5056259;28;20044;-36
2021/12/31 03:54:25;;;;;;;41.63;18.85;;;-2.30;74.80;;;;;;5056407;28;20337;-38
2021/12/31 03:56:50;;;;;;;40.15;18.38;;;-2.30;75.00;;;;;;5055825;28;20468;-38
2021/12/31 03:59:16;;;;;;;41.78;19.30;;;-2.30;75.00;;;;;;5056236;28;20180;-39
2021/12/31 04:01:42;;;;;;;47.33;18.42;;;-2.40;75.00;;;;;;5055931;28;20075;-36
2021/12/31 04:04:08;;;;;;;43.03;18.90;;;-2.40;75.20;;;;;;5056089;28;20418;-37
2021/12/31 04:06:34;;;;;;;42.30;18.77;;;-2.40;75.30;;;;;;5056201;28;20037;-38
2021/12/31 04:09:00;;;;;;;42.33;18.17;;;-2.50;75.40;;;;;;5055924;28;20036;-36
2021/12/31 04:11:26;;;;;;;41.17;18.45;;;-2.50;75.70;;;;;;5056099;28;20025;-36
2021/12/31 04:13:52;;;;;;;43.65;19.48;;;-2.50;75.80;;;;;;5055996;28;20375;-38
2021/12/31 04:16:18;;;;;;;42.15;18.65;;;-2.50;75.90;;;;;;5055701;28;20025;-36
2021/12/31 04:18:43;;;;;;;45.83;18.00;;;-2.50;76.10;;;;;;5055927;28;20037;-38
2021/12/31 04:21:09;;;;;;;49.13;18.70;;;-2.50;76.10;;;;;;5055727;28;20033;-38
2021/12/31 04:23:47;;;;;;;43.88;18.80;;;-2.40;76.30;;;;;;5055894;28;20036;-36
2021/12/31 04:26:14;;;;;;;48.00;20.63;;;-2.40;76.20;;;;;;5056061;28;20060;-38
2021/12/31 04:28:40;;;;;;;45.65;18.83;;;-2.40;76.40;;;;;;5056002;28;20078;-36
2021/12/31 04:31:05;;;;;;;45.42;19.42;;;-2.40;76.40;;;;;;5055785;28;20363;-36
2021/12/31 04:33:31;;;;;;;49.33;18.92;;;-2.40;76.40;;;;;;5055631;28;20114;-38
2021/12/31 04:35:57;;;;;;;40.15;18.30;;;-2.30;76.40;;;;;;5055839;28;20032;-39
2021/12/31 04:38:23;;;;;;;43.50;19.27;;;-2.30;76.40;;;;;;5055640;28;20027;-39
2021/12/31 04:40:49;;;;;;;49.85;20.15;;;-2.30;76.40;;;;;;5055450;28;20029;-36
2021/12/31 04:43:14;;;;;;;42.88;18.35;;;-2.30;76.40;;;;;;5055440;28;20100;-37
2021/12/31 04:45:40;;;;;;;43.15;19.58;;;-2.30;76.30;;;;;;5056739;28;20029;-39
2021/12/31 04:48:06;;;;;;;45.15;18.45;;;-2.30;76.40;;;;;;5059749;28;20033;-36
2021/12/31 04:50:32;;;;;;;40.90;18.52;;;-2.20;76.50;;;;;;5059417;28;20037;-39
2021/12/31 04:52:58;;;;;;;46.70;19.90;;;-2.20;76.50;;;;;;5059430;28;20029;-36
2021/12/31 04:55:24;;;;;;;46.28;19.67;;;-2.10;76.50;;;;;;5059232;28;20040;-36
2021/12/31 04:57:49;;;;;;;55.30;21.60;;;-2.10;76.20;;;;;;5059548;28;20028;-39
2021/12/31 05:00:17;;;;;;;47.75;19.92;;;-2.10;76.20;;;;;;5059691;28;20366;-36
2021/12/31 05:02:43;;;;;;;46.88;20.15;;;-2.10;76.20;;;;;;5059199;28;20112;-39
2021/12/31 05:05:08;;;;;;;48.78;20.63;;;-2.10;76.20;;;;;;5059544;28;20033;-38
2021/12/31 05:07:34;;;;;;;46.25;20.27;;;-2.10;76.30;;;;;;5059103;28;20033;-39
2021/12/31 05:10:00;;;;;;;46.55;18.20;;;-2.10;76.40;;;;;;5059427;28;20432;-37
2021/12/31 05:12:29;;;;;;;40.83;19.48;;;-2.10;76.30;;;;;;5059065;28;20032;-38
2021/12/31 05:14:55;;;;;;;51.55;19.23;;;-2.10;76.40;;;;;;5059264;28;20029;-39
2021/12/31 05:17:21;;;;;;;46.30;19.38;;;-2.10;76.40;;;;;;5059225;28;20155;-38
2021/12/31 05:19:47;;;;;;;45.22;19.00;;;-2.10;76.50;;;;;;5058666;28;20302;-36
2021/12/31 05:22:14;;;;;;;46.70;19.80;;;-2.10;76.50;;;;;;5058868;28;20120;-37
2021/12/31 05:24:40;;;;;;;53.38;21.15;;;-2.10;76.50;;;;;;5059271;28;20087;-39
2021/12/31 05:27:07;;;;;;;46.15;21.13;;;-2.10;76.50;;;;;;5058986;28;20029;-37
2021/12/31 05:29:33;;;;;;;47.50;20.48;;;-2.00;76.60;;;;;;5058986;28;20040;-36
2021/12/31 05:31:59;;;;;;;41.13;18.50;;;-2.00;76.70;;;;;;5058753;28;20048;-39
2021/12/31 05:34:25;;;;;;;51.53;22.55;;;-2.10;76.70;;;;;;5058738;28;20021;-38
2021/12/31 05:36:50;;;;;;;48.85;22.00;;;-2.10;76.90;;;;;;5058609;28;20025;-37
2021/12/31 05:39:16;;;;;;;52.78;20.98;;;-2.10;76.90;;;;;;5058602;28;20512;-36
2021/12/31 05:41:42;;;;;;;52.00;22.25;;;-2.00;77.00;;;;;;5058286;28;20039;-36
2021/12/31 05:44:08;;;;;;;49.60;21.88;;;-2.00;77.10;;;;;;5057268;28;20039;-39
2021/12/31 05:46:35;;;;;;;48.30;21.70;;;-2.00;77.00;;;;;;5058251;28;20033;-36
2021/12/31 05:49:01;;;;;;;44.55;19.38;;;-2.00;77.00;;;;;;5058450;28;20032;-39
2021/12/31 05:51:27;;;;;;;44.80;20.17;;;-2.00;77.50;;;;;;5058004;28;20466;-36
2021/12/31 05:53:54;;;;;;;46.47;20.38;;;-2.00;77.00;;;;;;5058290;28;20029;-39
2021/12/31 05:56:20;;;;;;;46.05;21.23;;;-2.00;77.10;;;;;;5057583;28;20079;-39
2021/12/31 05:58:46;;;;;;;46.63;21.02;;;-2.00;77.20;;;;;;5057522;28;20248;-36
2021/12/31 06:01:11;;;;;;;50.75;20.75;;;-2.00;77.30;;;;;;5058163;28;20413;-36
2021/12/31 06:03:37;;;;;;;51.20;20.45;;;-2.00;77.40;;;;;;5058035;28;20055;-36
2021/12/31 06:06:03;;;;;;;56.33;22.35;;;-2.00;77.40;;;;;;5057811;28;20033;-36
2021/12/31 06:08:28;;;;;;;45.97;19.25;;;-1.90;77.40;;;;;;5057901;28;20057;-39
2021/12/31 06:10:54;;;;;;;49.15;21.30;;;-1.90;77.50;;;;;;5057901;28;20028;-37
2021/12/31 06:13:20;;;;;;;55.80;23.95;;;-2.00;77.60;;;;;;5056904;28;20087;-36
2021/12/31 06:15:48;;;;;;;45.30;19.20;;;-1.90;77.70;;;;;;5057767;28;20356;-39
2021/12/31 06:18:14;;;;;;;50.05;20.90;;;-1.90;77.80;;;;;;5057907;28;20037;-39
2021/12/31 06:20:43;;;;;;;46.28;20.80;;;-1.90;78.00;;;;;;5057544;28;20025;-39
2021/12/31 06:23:08;;;;;;;48.20;21.00;;;-1.90;78.20;;;;;;5057689;28;20033;-36
2021/12/31 06:25:34;;;;;;;49.20;21.52;;;-1.90;78.40;;;;;;5057592;28;20040;-39
2021/12/31 06:28:01;;;;;;;53.35;21.02;;;-1.90;78.50;;;;;;5057526;28;20033;-37
2021/12/31 06:30:27;;;;;;;52.08;21.45;;;-1.90;78.80;;;;;;5057794;28;20376;-38
2021/12/31 06:32:53;;;;;;;52.10;22.55;;;-1.90;78.70;;;;;;5057253;28;20025;-39
2021/12/31 06:35:19;;;;;;;52.45;21.75;;;-1.90;78.50;;;;;;5057507;28;20064;-39
2021/12/31 06:37:45;;;;;;;48.50;20.48;;;-1.90;78.60;;;;;;5057536;28;20422;-37
2021/12/31 06:40:12;;;;;;;53.58;20.73;;;-1.90;78.60;;;;;;5057657;28;20025;-36
2021/12/31 06:42:38;;;;;;;47.08;19.92;;;-1.90;78.70;;;;;;5057357;28;20033;-39
2021/12/31 06:45:04;;;;;;;48.72;21.10;;;-1.90;78.60;;;;;;5057404;28;20029;-39
2021/12/31 06:47:30;;;;;;;46.97;19.50;;;-1.90;78.70;;;;;;5057220;28;20065;-36
2021/12/31 06:49:55;;;;;;;47.63;21.08;;;-1.80;78.80;;;;;;5057595;28;20122;-39
2021/12/31 06:52:21;;;;;;;50.05;20.65;;;-1.90;78.60;;;;;;5057119;28;20025;-39
2021/12/31 06:54:47;;;;;;;49.30;20.52;;;-1.80;78.60;;;;;;5057129;28;20405;-39
2021/12/31 06:57:13;;;;;;;47.72;20.55;;;-1.90;78.60;;;;;;5057510;28;20107;-36
2021/12/31 06:59:39;;;;;;;43.88;19.90;;;-1.80;78.70;;;;;;5055905;28;20021;-38
2021/12/31 07:02:04;;;;;;;51.63;21.30;;;-1.80;78.90;;;;;;5056944;28;20029;-39
2021/12/31 07:04:30;;;;;;;48.15;21.33;;;-1.80;79.00;;;;;;5056782;28;20036;-36
2021/12/31 07:06:56;;;;;;;53.70;22.33;;;-1.80;79.20;;;;;;5057253;28;20048;-38
2021/12/31 07:09:21;;;;;;;57.83;22.15;;;-1.80;79.30;;;;;;5056725;28;20346;-37
2021/12/31 07:11:47;;;;;;;51.47;19.65;;;-1.80;79.30;;;;;;5056612;28;20456;-37
2021/12/31 07:14:12;;;;;;;61.67;21.55;;;-1.80;79.40;;;;;;5056362;28;20032;-36
2021/12/31 07:16:38;;;;;;;46.60;20.13;;;-1.70;79.40;;;;;;5056675;28;20033;-39
2021/12/31 07:19:04;;;;;;;53.38;21.63;;;-1.70;79.40;;;;;;5056696;28;20024;-39
2021/12/31 07:21:29;;;;;;;50.50;21.50;;;-1.60;79.30;;;;;;5056663;28;20029;-36
2021/12/31 07:23:55;;;;;;;53.75;22.38;;;-1.60;79.40;;;;;;5056517;28;20029;-37
2021/12/31 07:26:21;;;;;;;50.95;22.00;;;-1.50;79.50;;;;;;5056362;28;20439;-39
2021/12/31 07:28:46;;;;;;;52.05;23.20;;;-1.40;79.70;;;;;;5056219;28;20029;-39
2021/12/31 07:31:14;;;;;;;54.95;20.90;;;-1.40;79.60;;;;;;5056047;28;20124;-36
2021/12/31 07:33:40;;;;;;;44.47;20.10;;;-1.30;79.40;;;;;;5056345;28;20036;-36
2021/12/31 07:36:06;;;;;;;51.75;20.88;;;-1.20;78.90;;;;;;5055848;28;20155;-36
2021/12/31 07:38:34;;;;;;;51.30;22.45;;;-1.10;78.80;;;;;;5056264;28;20104;-37
2021/12/31 07:41:01;;;;;;;48.22;20.67;;;-1.10;78.60;;;;;;5056356;28;20037;-39
2021/12/31 07:43:27;;;;;;;61.53;22.63;;;-1.00;78.40;;;;;;5056126;28;20044;-39
2021/12/31 07:45:54;;;;;;;54.17;24.70;;;-1.00;78.50;;;;;;5056375;28;20033;-38
2021/12/31 07:48:20;;;;;;;66.15;26.70;;;-0.90;78.50;;;;;;5056127;28;20036;-36
2021/12/31 07:50:47;;;;;;;54.05;23.55;;;-0.90;78.40;;;;;;5055825;28;20037;-39
2021/12/31 07:53:13;;;;;;;52.03;23.70;;;-0.80;78.20;;;;;;5056145;28;20469;-39
2021/12/31 07:55:39;;;;;;;51.35;23.05;;;-0.80;78.00;;;;;;5055717;28;20144;-38
2021/12/31 07:58:05;;;;;;;51.00;22.42;;;-0.70;78.40;;;;;;5055773;28;20021;-36
2021/12/31 08:00:31;;;;;;;52.55;23.25;;;-0.70;78.10;;;;;;5055674;28;20417;-36
2021/12/31 08:02:58;;;;;;;59.67;25.35;;;-0.70;78.20;;;;;;5055598;28;20032;-39
2021/12/31 08:05:25;;;;;;;56.55;25.52;;;-0.60;78.30;;;;;;5055753;28;20358;-36
2021/12/31 08:07:51;;;;;;;49.05;21.42;;;-0.60;78.30;;;;;;5055736;28;20066;-36
2021/12/31 08:10:17;;;;;;;55.10;23.27;;;-0.50;78.10;;;;;;5055797;28;20469;-39
2021/12/31 08:12:43;;;;;;;54.60;23.05;;;-0.50;78.00;;;;;;5055389;28;20425;-40
2021/12/31 08:15:09;;;;;;;54.40;24.38;;;-0.50;78.00;;;;;;5055823;28;20025;-39
2021/12/31 08:17:35;;;;;;;50.45;22.40;;;-0.40;78.10;;;;;;5055778;28;20025;-39
2021/12/31 08:20:00;;;;;;;52.25;22.80;;;-0.40;77.90;;;;;;5057370;28;20029;-39
2021/12/31 08:22:26;;;;;;;51.20;21.55;;;-0.40;77.80;;;;;;5062229;28;20071;-38
2021/12/31 08:24:52;;;;;;;52.90;23.60;;;-0.30;77.80;;;;;;5062549;28;20428;-38
2021/12/31 08:27:18;;;;;;;53.63;21.80;;;-0.30;78.00;;;;;;5062437;28;20375;-39
2021/12/31 08:29:44;;;;;;;51.95;21.52;;;-0.30;77.80;;;;;;5062388;28;20033;-36
2021/12/31 08:32:09;;;;;;;50.30;22.63;;;-0.30;77.80;;;;;;5061842;28;20051;-39
2021/12/31 08:34:35;;;;;;;46.63;20.80;;;-0.20;77.80;;;;;;5062377;28;20025;-37
2021/12/31 08:37:01;;;;;;;54.90;23.23;;;-0.20;77.50;;;;;;5062074;28;20037;-40
2021/12/31 08:39:26;;;;;;;59.38;23.52;;;-0.10;77.60;;;;;;5062492;28;20111;-37
2021/12/31 08:41:53;;;;;;;59.05;26.00;;;-0.10;77.80;;;;;;5062082;28;20029;-39
2021/12/31 08:44:18;;;;;;;54.95;21.38;;;-0.10;77.80;;;;;;5062459;28;20058;-36
2021/12/31 08:46:45;;;;;;;50.78;19.70;;;-0.10;77.60;;;;;;5062322;28;20033;-37
2021/12/31 08:49:11;;;;;;;46.33;20.73;;;0.00;77.60;;;;;;5062080;28;20020;-36
2021/12/31 08:51:37;;;;;;;65.68;25.50;;;0.00;77.60;;;;;;5062450;28;20043;-37
2021/12/31 08:54:03;;;;;;;53.22;22.80;;;0.00;77.90;;;;;;5062101;28;20071;-40
2021/12/31 08:56:29;;;;;;;52.10;23.40;;;0.10;78.10;;;;;;5061673;28;20049;-39
2021/12/31 08:58:54;;;;;;;48.05;20.80;;;0.10;77.80;;;;;;5062181;28;20075;-40
2021/12/31 09:01:20;;;;;;;48.88;21.35;;;0.10;77.80;;;;;;5061866;28;20033;-37
2021/12/31 09:03:46;;;;;;;50.85;22.33;;;0.10;77.60;;;;;;5062080;28;20025;-39
2021/12/31 09:06:17;;;;;;;56.90;24.25;;;0.20;77.60;;;;;;5061728;28;20483;-36
2021/12/31 09:08:43;;;;;;;59.05;22.55;;;0.20;77.70;;;;;;5061868;28;20037;-36
2021/12/31 09:11:09;;;;;;;50.97;23.10;;;0.20;77.80;;;;;;5061902;28;20036;-39
2021/12/31 09:13:35;;;;;;;50.67;22.38;;;0.30;77.60;;;;;;5061729;28;20378;-39
2021/12/31 09:16:01;;;;;;;45.92;21.90;;;0.30;77.60;;;;;;5061862;28;20032;-39
2021/12/31 09:18:26;;;;;;;57.25;24.75;;;0.30;77.60;;;;;;5061968;28;20035;-39
2021/12/31 09:20:53;;;;;;;56.08;25.13;;;0.30;77.80;;;;;;5061894;28;20113;-39
2021/12/31 09:23:19;;;;;;;57.97;23.90;;;0.40;77.90;;;;;;5061864;28;20355;-37
2021/12/31 09:25:45;;;;;;;52.20;23.65;;;0.40;77.70;;;;;;5061578;28;20091;-37
2021/12/31 09:28:11;;;;;;;50.88;21.98;;;0.40;77.60;;;;;;5061833;28;20057;-38
2021/12/31 09:30:37;;;;;;;49.38;22.85;;;0.50;77.80;;;;;;5061517;28;20059;-39
2021/12/31 09:33:02;;;;;;;61.25;25.10;;;0.50;77.60;;;;;;5058535;28;20033;-40
2021/12/31 09:35:28;;;;;;;57.75;24.92;;;0.50;77.50;;;;;;5058480;28;20033;-38
2021/12/31 09:37:55;;;;;;;55.08;23.42;;;0.60;77.80;;;;;;5058263;28;20083;-40
2021/12/31 09:40:22;;;;;;;66.35;25.05;;;0.60;77.90;;;;;;5058272;28;20025;-37
2021/12/31 09:43:04;;;;;;;57.45;24.52;;;0.60;77.90;;;;;;5058238;28;20497;-39
2021/12/31 09:45:31;;;;;;;54.00;24.33;;;0.60;77.80;;;;;;5058264;28;20043;-39
2021/12/31 09:47:59;;;;;;;58.65;24.63;;;0.60;77.80;;;;;;5058008;28;20032;-37
2021/12/31 09:50:26;;;;;;;62.60;24.45;;;0.70;77.90;;;;;;5058127;28;20344;-37
2021/12/31 09:52:54;;;;;;;55.05;23.95;;;0.70;78.10;;;;;;5057790;28;20115;-39
2021/12/31 09:55:49;;;;;;;64.30;25.80;;;0.70;78.40;;;;;;5057906;28;20079;-39
2021/12/31 09:58:17;;;;;;;62.85;25.08;;;0.80;78.40;;;;;;5057931;28;20039;-39
2021/12/31 10:00:45;;;;;;;54.92;24.05;;;0.80;78.50;;;;;;5057929;28;20109;-37
2021/12/31 10:03:25;;;;;;;66.80;27.52;;;0.80;78.60;;;;;;5057810;28;20036;-39
2021/12/31 10:06:12;;;;;;;61.03;26.00;;;0.80;78.80;;;;;;5057949;28;20063;-36
2021/12/31 10:08:43;;;;;;;53.33;22.83;;;0.90;79.00;;;;;;5057731;28;20094;-36
2021/12/31 10:11:17;;;;;;;52.72;24.50;;;0.90;79.10;;;;;;5057814;28;20045;-36
2021/12/31 10:14:03;;;;;;;58.20;23.15;;;0.90;79.10;;;;;;5057932;28;20309;-39
2021/12/31 10:16:39;;;;;;;55.40;23.30;;;0.90;79.20;;;;;;5057654;28;20071;-39
2021/12/31 10:19:13;;;;;;;54.95;22.17;;;1.00;79.40;;;;;;5057860;28;20109;-36
2021/12/31 10:21:42;;;;;;;54.83;25.13;;;1.00;79.40;;;;;;5057645;28;20029;-38
2021/12/31 10:24:25;;;;;;;45.83;21.42;;;1.10;79.50;;;;;;5057698;28;20033;-36
2021/12/31 10:26:57;;;;;;;50.53;22.98;;;1.10;79.40;;;;;;5057746;28;20294;-37
2021/12/31 10:29:23;;;;;;;56.83;23.75;;;1.10;79.40;;;;;;5057416;28;20067;-39
2021/12/31 10:31:51;;;;;;;49.10;21.45;;;1.20;79.50;;;;;;5056681;28;20098;-40
2021/12/31 10:34:36;;;;;;;53.15;23.27;;;1.20;79.60;;;;;;5057070;28;20341;-40
2021/12/31 10:37:17;;;;;;;53.40;22.70;;;1.20;79.80;;;;;;5057249;28;20047;-40
2021/12/31 10:39:44;;;;;;;;;;;1.30;80.20;;;;;;5057834;28;20021;-37
2021/12/31 10:42:14;;;;;;;52.60;24.52;;;1.40;80.00;;;;;;5057565;28;20004;-40
2021/12/31 10:44:46;;;;;;;63.92;26.35;;;1.40;80.00;;;;;;5056952;28;20029;-37
2021/12/31 10:47:38;;;;;;;60.67;26.98;;;1.40;79.80;;;;;;5057242;28;20043;-36
2021/12/31 10:50:06;;;;;;;66.25;28.88;;;1.50;79.80;;;;;;5057241;28;20033;-40
2021/12/31 10:52:41;;;;;;;70.32;33.38;;;1.50;79.80;;;;;;5057060;28;20482;-39
2021/12/31 10:55:26;;;;;;;60.83;26.27;;;1.60;79.90;;;;;;5056986;28;20076;-37
2021/12/31 10:57:54;;;;;;;59.67;26.75;;;1.60;79.90;;;;;;5056632;28;20121;-39
2021/12/31 11:00:21;;;;;;;58.10;24.77;;;1.70;79.90;;;;;;5056999;28;20251;-37
2021/12/31 11:02:47;;;;;;;55.63;25.35;;;1.70;79.80;;;;;;5056588;28;20028;-40
2021/12/31 11:05:16;;;;;;;53.58;24.35;;;1.80;79.90;;;;;;5056956;28;20116;-39
2021/12/31 11:07:41;;;;;;;51.28;23.85;;;1.80;79.70;;;;;;5056410;28;20417;-39
2021/12/31 11:10:09;;;;;;;50.15;24.08;;;1.80;79.50;;;;;;5056833;28;20044;-39
2021/12/31 11:12:34;;;;;;;62.08;24.65;;;1.80;79.30;;;;;;5056320;28;20044;-40
2021/12/31 11:15:01;;;;;;;48.63;23.48;;;1.90;79.30;;;;;;5056668;28;20140;-37
2021/12/31 11:17:27;;;;;;;53.10;21.98;;;1.90;79.10;;;;;;5056412;28;20029;-39
2021/12/31 11:19:53;;;;;;;57.03;25.58;;;1.90;79.00;;;;;;5056628;28;20040;-39
2021/12/31 11:22:26;;;;;;;54.97;24.08;;;1.90;79.00;;;;;;5056663;28;20072;-37
2021/12/31 11:24:52;;;;;;;48.17;22.38;;;2.00;79.20;;;;;;5056587;28;20037;-39
2021/12/31 11:27:31;;;;;;;49.95;22.48;;;2.00;79.00;;;;;;5056294;28;20183;-39
2021/12/31 11:29:58;;;;;;;46.30;22.05;;;2.00;78.90;;;;;;5055913;28;20033;-38
2021/12/31 11:32:42;;;;;;;52.35;22.20;;;2.00;78.90;;;;;;5056208;28;20055;-36
2021/12/31 11:35:27;;;;;;;54.08;24.08;;;2.00;78.80;;;;;;5056412;28;20044;-36
2021/12/31 11:37:52;;;;;;;48.85;22.65;;;2.10;78.80;;;;;;5056389;28;20033;-39
2021/12/31 11:40:38;;;;;;;42.20;19.40;;;2.10;78.80;;;;;;5055802;28;20032;-37
2021/12/31 11:43:27;;;;;;;46.22;20.27;;;2.10;78.70;;;;;;5055849;28;20032;-39
2021/12/31 11:46:11;;;;;;;48.33;21.42;;;2.10;78.60;;;;;;5055941;28;20029;-36
2021/12/31 11:48:43;;;;;;;54.33;21.90;;;2.10;78.50;;;;;;5056251;28;20360;-39
2021/12/31 11:51:19;;;;;;;46.10;20.50;;;2.10;78.70;;;;;;5055717;28;20409;-37
2021/12/31 11:53:59;;;;;;;47.08;22.20;;;2.10;78.70;;;;;;5055743;28;20036;-36
2021/12/31 11:56:36;;;;;;;57.20;25.27;;;2.10;78.60;;;;;;5054765;28;20064;-39
2021/12/31 11:59:17;;;;;;;50.67;23.65;;;2.10;78.50;;;;;;5055984;28;20425;-40
2021/12/31 12:01:47;;;;;;;49.47;22.75;;;2.10;78.50;;;;;;5055566;28;20094;-40
2021/12/31 12:04:27;;;;;;;57.60;23.23;;;2.10;78.50;;;;;;5056180;28;20541;-39
2021/12/31 12:07:10;;;;;;;57.83;26.02;;;2.10;78.60;;;;;;5055353;28;20064;-39
2021/12/31 12:09:35;;;;;;;49.55;23.25;;;2.10;78.60;;;;;;5055730;28;20047;-37
2021/12/31 12:12:01;;;;;;;54.08;23.02;;;2.10;78.30;;;;;;5055515;28;20412;-39
2021/12/31 12:14:36;;;;;;;55.15;25.70;;;2.10;78.30;;;;;;5055823;28;20056;-36
2021/12/31 12:17:02;;;;;;;46.50;21.90;;;2.10;78.30;;;;;;5055596;28;20029;-38
2021/12/31 12:19:46;;;;;;;47.38;21.27;;;2.10;78.10;;;;;;5055546;28;20116;-36
2021/12/31 12:22:32;;;;;;;53.40;22.50;;;2.10;78.10;;;;;;5055289;28;20028;-39
2021/12/31 12:24:59;;;;;;;44.85;21.67;;;2.10;78.20;;;;;;5055695;28;20036;-39
2021/12/31 12:27:26;;;;;;;58.75;24.30;;;2.00;78.30;;;;;;5055377;28;20064;-36
2021/12/31 12:29:53;;;;;;;53.30;23.50;;;2.00;78.40;;;;;;5055717;28;20355;-39
2021/12/31 12:32:33;;;;;;;52.42;23.35;;;2.00;78.60;;;;;;5055362;28;20068;-39
2021/12/31 12:35:10;;;;;;;47.22;21.63;;;2.00;78.70;;;;;;5055814;28;20032;-38